Time;durP1;ratioP1;P1;durP2;ratioP2;P2;SDS_P1;SDS_P2;PMS_P1;PMS_P2;Temp;Humidity;BMP_temperature;BMP_pressure;BME280_temperature;BME280_humidity;BME280_pressure;Samples;Min_cycle;Max_cycle;Signal;HPM_P1;HPM_P2
2022/10/28 00:01:11;;;;;;;14.88;7.93;;;15.80;99.90;;;;;;5030330;28;20064;-63
2022/10/28 00:03:58;;;;;;;13.55;7.82;;;15.80;99.90;;;;;;5029874;28;20034;-63
2022/10/28 00:06:32;;;;;;;18.73;8.27;;;15.80;99.90;;;;;;5029337;28;20080;-63
2022/10/28 00:08:58;;;;;;;11.57;7.30;;;15.80;99.90;;;;;;5029903;28;20124;-63
2022/10/28 00:11:27;;;;;;;14.45;7.35;;;15.80;99.90;;;;;;5022613;28;20037;-63
2022/10/28 00:13:55;;;;;;;12.43;7.90;;;15.90;99.90;;;;;;5024504;28;20179;-63
2022/10/28 00:16:24;;;;;;;15.38;7.55;;;15.90;99.90;;;;;;5022647;28;20052;-63
2022/10/28 00:18:52;;;;;;;15.52;7.78;;;15.80;99.90;;;;;;5022318;28;20041;-64
2022/10/28 00:21:20;;;;;;;15.40;8.02;;;15.90;99.90;;;;;;5015299;28;20053;-64
2022/10/28 00:23:46;;;;;;;16.05;7.85;;;15.80;99.90;;;;;;5021450;28;20037;-63
2022/10/28 00:26:14;;;;;;;13.18;7.50;;;15.80;99.90;;;;;;5025481;28;20034;-63
2022/10/28 00:28:42;;;;;;;14.05;7.25;;;15.80;99.90;;;;;;5027338;28;20117;-63
2022/10/28 00:31:10;;;;;;;18.05;7.63;;;15.80;99.90;;;;;;5033505;28;20400;-63
2022/10/28 00:33:37;;;;;;;15.25;7.75;;;15.80;99.90;;;;;;5015373;28;20038;-64
2022/10/28 00:36:21;;;;;;;13.95;8.32;;;15.80;99.90;;;;;;5032937;28;20037;-64
2022/10/28 00:38:49;;;;;;;14.73;7.57;;;15.70;99.90;;;;;;5014899;28;20053;-63
2022/10/28 00:41:20;;;;;;;12.88;7.88;;;15.70;99.90;;;;;;5023715;28;20037;-63
2022/10/28 00:43:52;;;;;;;14.15;7.88;;;15.70;99.90;;;;;;5027775;28;20045;-64
2022/10/28 00:46:24;;;;;;;14.35;7.45;;;15.70;99.90;;;;;;5021395;28;20395;-63
2022/10/28 00:48:54;;;;;;;15.40;8.05;;;15.70;99.90;;;;;;5025155;28;20054;-64
2022/10/28 00:51:21;;;;;;;19.38;8.57;;;15.70;99.90;;;;;;5017574;28;20046;-63
2022/10/28 00:53:50;;;;;;;17.30;7.95;;;15.70;99.90;;;;;;5030507;28;20392;-63
2022/10/28 00:56:17;;;;;;;16.88;7.47;;;15.70;99.90;;;;;;5029802;28;20041;-63
2022/10/28 00:58:44;;;;;;;14.68;7.60;;;15.70;99.90;;;;;;5029086;28;20067;-63
2022/10/28 01:01:09;;;;;;;17.00;7.65;;;15.60;99.90;;;;;;5030397;28;20033;-63
2022/10/28 01:03:36;;;;;;;16.65;8.35;;;15.60;99.90;;;;;;5016656;28;20061;-63
2022/10/28 01:06:02;;;;;;;14.77;7.88;;;15.60;99.90;;;;;;5026891;28;20041;-63
2022/10/28 01:08:28;;;;;;;13.13;8.13;;;15.50;99.90;;;;;;5014898;28;20400;-63
2022/10/28 01:11:19;;;;;;;15.77;8.40;;;15.50;99.90;;;;;;5029195;28;20036;-63
2022/10/28 01:14:17;;;;;;;15.57;8.23;;;15.50;99.90;;;;;;5021752;28;20524;-63
2022/10/28 01:17:02;;;;;;;15.60;8.27;;;15.50;99.90;;;;;;5023724;28;20045;-63
2022/10/28 01:19:50;;;;;;;15.98;8.55;;;15.40;99.90;;;;;;5024826;28;20045;-63
2022/10/28 01:22:31;;;;;;;14.32;8.20;;;15.40;99.90;;;;;;5027762;28;20038;-64
2022/10/28 01:25:40;;;;;;;14.10;8.43;;;15.40;99.90;;;;;;5025119;28;20092;-64
2022/10/28 01:28:27;;;;;;;16.05;8.90;;;15.40;99.90;;;;;;5021795;28;20052;-64
2022/10/28 01:31:11;;;;;;;19.15;8.70;;;15.30;99.90;;;;;;5028530;28;20519;-63
2022/10/28 01:33:53;;;;;;;16.85;8.80;;;15.30;99.90;;;;;;5029698;28;20079;-64
2022/10/28 01:36:29;;;;;;;15.77;9.20;;;15.30;99.90;;;;;;5028760;28;20042;-64
2022/10/28 01:39:10;;;;;;;15.75;9.70;;;15.30;99.90;;;;;;5017910;28;20516;-64
2022/10/28 01:41:35;;;;;;;15.90;10.45;;;15.30;99.90;;;;;;5029354;28;20381;-64
2022/10/28 01:44:01;;;;;;;20.17;10.02;;;15.30;99.90;;;;;;5020384;28;20104;-64
2022/10/28 01:46:40;;;;;;;18.55;10.25;;;15.30;99.90;;;;;;5023978;28;20022;-64
2022/10/28 01:49:29;;;;;;;15.27;9.25;;;15.20;99.90;;;;;;5030288;28;20045;-64
2022/10/28 01:52:00;;;;;;;17.27;10.10;;;15.30;99.90;;;;;;5016251;28;20412;-64
2022/10/28 01:54:29;;;;;;;20.90;10.10;;;15.20;99.90;;;;;;5018668;28;20048;-64
2022/10/28 01:56:56;;;;;;;18.50;10.27;;;15.20;99.90;;;;;;5024536;28;20050;-64
2022/10/28 01:59:26;;;;;;;19.08;10.05;;;15.20;99.90;;;;;;5024766;28;20044;-64
2022/10/28 02:01:53;;;;;;;18.17;9.80;;;15.20;99.90;;;;;;5014331;28;20123;-64
2022/10/28 02:04:19;;;;;;;16.83;10.23;;;15.10;99.90;;;;;;5025041;28;20439;-64
2022/10/28 02:06:50;;;;;;;14.98;9.68;;;15.10;99.90;;;;;;5023387;28;20045;-64
2022/10/28 02:09:18;;;;;;;20.48;10.27;;;15.10;99.90;;;;;;5018345;28;20041;-63
2022/10/28 02:11:44;;;;;;;19.38;10.20;;;15.10;99.90;;;;;;5025895;28;20045;-64
2022/10/28 02:14:12;;;;;;;18.17;10.65;;;15.10;99.90;;;;;;5023582;28;20053;-63
2022/10/28 02:16:49;;;;;;;17.55;10.65;;;15.10;99.90;;;;;;5017085;28;20100;-62
2022/10/28 02:19:47;;;;;;;18.40;10.35;;;15.10;99.90;;;;;;5023259;28;20539;-63
2022/10/28 02:22:21;;;;;;;17.65;11.45;;;15.10;99.90;;;;;;5018324;28;20037;-62
2022/10/28 02:25:02;;;;;;;23.55;12.02;;;15.00;99.90;;;;;;5021697;28;20046;-62
2022/10/28 02:27:38;;;;;;;18.33;11.40;;;15.10;99.90;;;;;;5016632;28;20046;-65
2022/10/28 02:30:30;;;;;;;19.70;11.60;;;15.00;99.90;;;;;;5021264;28;20042;-62
2022/10/28 02:32:59;;;;;;;19.27;11.27;;;15.00;99.90;;;;;;5010726;28;20050;-63
2022/10/28 02:35:38;;;;;;;20.48;12.55;;;15.00;99.90;;;;;;5013760;28;20049;-63
2022/10/28 02:38:10;;;;;;;21.40;11.68;;;15.00;99.90;;;;;;5018476;28;20069;-62
2022/10/28 02:40:38;;;;;;;17.83;11.82;;;15.00;99.90;;;;;;5024476;28;20034;-62
2022/10/28 02:43:07;;;;;;;24.75;12.73;;;15.00;99.90;;;;;;5021843;28;20038;-62
2022/10/28 02:45:43;;;;;;;23.92;12.57;;;15.00;99.90;;;;;;5017999;28;20136;-62
2022/10/28 02:48:51;;;;;;;20.58;12.18;;;15.00;99.90;;;;;;5014663;28;20052;-67
2022/10/28 02:51:28;;;;;;;20.58;12.30;;;15.00;99.90;;;;;;5021291;28;20060;-63
2022/10/28 02:54:17;;;;;;;23.48;12.57;;;15.00;99.90;;;;;;5010178;28;20050;-63
2022/10/28 02:57:03;;;;;;;21.20;12.68;;;14.90;99.90;;;;;;4981067;28;1077237;-62
2022/10/28 02:59:29;;;;;;;24.80;13.40;;;14.90;99.90;;;;;;5024191;28;20057;-62
2022/10/28 03:01:55;;;;;;;25.83;12.85;;;15.00;99.90;;;;;;5030040;28;20053;-62
2022/10/28 03:04:20;;;;;;;20.23;12.80;;;15.00;99.90;;;;;;5028389;28;20555;-64
2022/10/28 03:06:46;;;;;;;21.70;12.68;;;14.90;99.90;;;;;;5010370;28;20169;-63
2022/10/28 03:09:12;;;;;;;24.15;12.88;;;14.90;99.90;;;;;;5021321;28;20116;-64
2022/10/28 03:11:37;;;;;;;26.42;13.18;;;15.00;99.90;;;;;;5022828;28;20033;-62
2022/10/28 03:14:03;;;;;;;21.13;12.82;;;14.80;99.90;;;;;;5022905;28;20276;-63
2022/10/28 03:16:29;;;;;;;23.30;12.57;;;14.90;99.90;;;;;;5018676;28;20041;-66
2022/10/28 03:18:54;;;;;;;23.17;13.30;;;14.90;99.90;;;;;;5029114;28;20055;-63
2022/10/28 03:21:20;;;;;;;24.25;13.65;;;14.90;99.90;;;;;;5012216;28;20041;-63
2022/10/28 03:23:45;;;;;;;27.20;12.65;;;14.90;99.90;;;;;;5028585;28;20068;-62
2022/10/28 03:26:11;;;;;;;23.63;12.65;;;14.90;99.90;;;;;;5021690;28;20045;-63
2022/10/28 03:28:37;;;;;;;23.00;13.50;;;14.80;99.90;;;;;;5015184;28;20045;-63
2022/10/28 03:31:03;;;;;;;24.10;13.05;;;14.90;99.90;;;;;;5021277;28;20124;-63
2022/10/28 03:33:29;;;;;;;21.40;11.85;;;14.90;99.90;;;;;;5029137;28;20045;-62
2022/10/28 03:35:54;;;;;;;21.88;11.48;;;14.90;99.90;;;;;;5031363;28;20038;-62
2022/10/28 03:38:20;;;;;;;21.92;11.77;;;14.80;99.90;;;;;;5032166;28;20052;-63
2022/10/28 03:40:49;;;;;;;19.88;12.07;;;14.80;99.90;;;;;;5025847;28;20041;-62
2022/10/28 03:43:16;;;;;;;19.15;12.38;;;14.80;99.90;;;;;;5025201;28;20045;-62
2022/10/28 03:45:42;;;;;;;23.25;12.90;;;14.80;99.90;;;;;;5028892;28;20041;-63
2022/10/28 03:48:07;;;;;;;19.48;11.93;;;14.80;99.90;;;;;;5018196;28;20030;-62
2022/10/28 03:50:33;;;;;;;24.70;12.82;;;14.80;99.90;;;;;;5013740;28;20080;-62
2022/10/28 03:52:59;;;;;;;24.45;12.05;;;14.90;99.90;;;;;;5029595;28;20037;-65
2022/10/28 03:55:24;;;;;;;21.73;12.25;;;14.80;99.90;;;;;;5033415;28;20052;-62
2022/10/28 03:57:51;;;;;;;18.85;11.45;;;14.80;99.90;;;;;;5033334;28;20041;-62
2022/10/28 04:00:20;;;;;;;20.08;11.57;;;14.80;99.90;;;;;;5024918;28;20037;-62
2022/10/28 04:02:50;;;;;;;20.17;11.73;;;14.80;99.90;;;;;;5021264;28;20412;-63
2022/10/28 04:05:16;;;;;;;20.20;11.60;;;14.80;99.90;;;;;;5023294;28;20120;-62
2022/10/28 04:07:42;;;;;;;21.77;11.57;;;14.80;99.90;;;;;;5018961;28;20038;-62
2022/10/28 04:10:08;;;;;;;23.58;11.45;;;14.80;99.90;;;;;;5024388;28;20038;-63
2022/10/28 04:12:33;;;;;;;21.75;11.57;;;14.80;99.90;;;;;;5029974;28;20042;-64
2022/10/28 04:14:59;;;;;;;20.73;11.68;;;14.80;99.90;;;;;;5028813;28;20499;-62
2022/10/28 04:17:24;;;;;;;23.25;11.75;;;14.80;99.90;;;;;;5032356;28;20075;-62
2022/10/28 04:19:50;;;;;;;20.17;11.98;;;14.80;99.90;;;;;;5027308;28;20049;-62
2022/10/28 04:22:16;;;;;;;20.08;11.23;;;14.80;99.90;;;;;;5033070;28;20067;-63
2022/10/28 04:24:41;;;;;;;24.70;12.75;;;14.80;99.90;;;;;;5033033;28;20048;-65
2022/10/28 04:27:07;;;;;;;21.00;12.40;;;14.80;99.90;;;;;;5017887;28;20400;-62
2022/10/28 04:29:33;;;;;;;23.00;11.95;;;14.80;99.90;;;;;;5027278;28;20515;-62
2022/10/28 04:31:58;;;;;;;23.98;12.60;;;14.70;99.90;;;;;;5018674;28;20045;-63
2022/10/28 04:34:25;;;;;;;21.73;11.95;;;14.80;99.90;;;;;;5025020;28;20048;-64
2022/10/28 04:36:50;;;;;;;20.73;11.43;;;14.80;99.90;;;;;;5030132;28;20044;-63
2022/10/28 04:39:16;;;;;;;21.27;12.43;;;14.80;99.90;;;;;;5029772;28;20428;-63
2022/10/28 04:41:42;;;;;;;20.83;11.52;;;14.80;99.90;;;;;;5029999;28;20078;-62
2022/10/28 04:44:07;;;;;;;20.95;11.77;;;14.80;99.90;;;;;;5017270;28;20044;-62
2022/10/28 04:46:33;;;;;;;21.20;11.63;;;14.80;99.90;;;;;;5028693;28;20069;-62
2022/10/28 04:48:58;;;;;;;21.40;12.38;;;14.80;99.90;;;;;;5025892;28;20052;-64
2022/10/28 04:51:24;;;;;;;20.95;12.13;;;14.80;99.90;;;;;;5021493;28;20572;-62
2022/10/28 04:53:49;;;;;;;20.67;11.93;;;14.70;99.90;;;;;;5018830;28;20088;-62
2022/10/28 04:56:15;;;;;;;19.67;11.68;;;14.80;99.90;;;;;;5014219;28;20453;-62
2022/10/28 04:58:41;;;;;;;23.75;12.90;;;14.80;99.90;;;;;;5032286;28;20056;-63
2022/10/28 05:01:07;;;;;;;23.55;12.00;;;14.80;99.90;;;;;;5024221;28;20041;-61
2022/10/28 05:03:34;;;;;;;20.70;11.90;;;14.80;99.90;;;;;;5028147;28;20384;-62
2022/10/28 05:06:00;;;;;;;22.45;11.75;;;14.70;99.90;;;;;;5021041;28;20065;-62
2022/10/28 05:08:25;;;;;;;27.65;11.45;;;14.80;99.90;;;;;;5027904;28;20426;-63
2022/10/28 05:10:51;;;;;;;20.90;11.43;;;14.70;99.90;;;;;;5025807;28;20045;-64
2022/10/28 05:13:17;;;;;;;22.05;11.65;;;14.70;99.90;;;;;;5029544;28;20515;-64
2022/10/28 05:15:43;;;;;;;20.77;11.70;;;14.70;99.90;;;;;;5032560;28;20049;-65
2022/10/28 05:18:08;;;;;;;23.02;11.50;;;14.70;99.90;;;;;;5022932;28;20393;-62
2022/10/28 05:20:34;;;;;;;22.45;11.68;;;14.70;99.90;;;;;;5027030;28;20036;-63
2022/10/28 05:23:00;;;;;;;21.77;11.52;;;14.70;99.90;;;;;;5028955;28;20108;-62
2022/10/28 05:25:25;;;;;;;18.90;11.40;;;14.70;99.90;;;;;;5023339;28;20078;-64
2022/10/28 05:27:51;;;;;;;17.50;11.57;;;14.70;99.90;;;;;;5026629;28;20037;-62
2022/10/28 05:30:17;;;;;;;20.48;11.10;;;14.70;99.90;;;;;;5029242;28;20065;-62
2022/10/28 05:32:43;;;;;;;22.17;11.38;;;14.70;99.90;;;;;;5030387;28;20030;-62
2022/10/28 05:35:09;;;;;;;22.42;11.50;;;14.70;99.90;;;;;;5026606;28;20443;-63
2022/10/28 05:37:35;;;;;;;17.42;11.13;;;14.70;99.90;;;;;;5025384;28;20060;-63
2022/10/28 05:40:01;;;;;;;27.60;11.15;;;14.70;99.90;;;;;;5033850;28;20488;-63
2022/10/28 05:42:27;;;;;;;20.77;10.63;;;14.70;99.90;;;;;;5029422;28;20044;-63
2022/10/28 05:44:52;;;;;;;23.45;11.02;;;14.70;99.90;;;;;;5018461;28;20040;-63
2022/10/28 05:47:18;;;;;;;19.67;9.95;;;14.70;99.90;;;;;;5028208;28;20095;-64
2022/10/28 05:49:43;;;;;;;20.58;11.40;;;14.70;99.90;;;;;;5019888;28;20046;-64
2022/10/28 05:52:09;;;;;;;19.55;11.07;;;14.70;99.90;;;;;;5022103;28;20053;-63
2022/10/28 05:54:35;;;;;;;17.67;10.05;;;14.70;99.90;;;;;;5020629;28;20068;-64
2022/10/28 05:57:00;;;;;;;19.80;10.75;;;14.70;99.90;;;;;;5021602;28;20042;-64
2022/10/28 05:59:26;;;;;;;20.30;10.35;;;14.70;99.90;;;;;;5030973;28;20037;-64
2022/10/28 06:01:52;;;;;;;21.38;10.65;;;14.70;99.90;;;;;;5020194;28;20072;-63
2022/10/28 06:04:17;;;;;;;21.05;10.60;;;14.60;99.90;;;;;;5025712;28;20037;-64
2022/10/28 06:06:43;;;;;;;19.48;10.18;;;14.70;99.90;;;;;;5027965;28;20037;-64
2022/10/28 06:09:09;;;;;;;18.75;9.43;;;14.60;99.90;;;;;;5017388;28;20033;-64
2022/10/28 06:11:34;;;;;;;19.05;9.15;;;14.60;99.90;;;;;;5023311;28;20103;-64
2022/10/28 06:14:00;;;;;;;20.85;10.27;;;14.60;99.90;;;;;;5026509;28;20034;-64
2022/10/28 06:16:26;;;;;;;17.38;9.85;;;14.60;99.90;;;;;;5024274;28;20061;-64
2022/10/28 06:18:51;;;;;;;18.85;9.25;;;14.60;99.90;;;;;;5030310;28;20048;-64
2022/10/28 06:21:17;;;;;;;22.95;9.05;;;14.60;99.90;;;;;;5023998;28;20090;-64
2022/10/28 06:23:42;;;;;;;16.92;9.45;;;14.50;99.90;;;;;;5018392;28;20044;-63
2022/10/28 06:26:08;;;;;;;16.85;9.35;;;14.60;99.90;;;;;;5026423;28;20094;-63
2022/10/28 06:28:34;;;;;;;23.77;9.50;;;14.50;99.90;;;;;;5027405;28;20034;-63
2022/10/28 06:31:05;;;;;;;20.58;9.43;;;14.50;99.90;;;;;;5026555;28;20420;-63
2022/10/28 06:33:32;;;;;;;17.02;9.27;;;14.50;99.90;;;;;;5026064;28;20423;-64
2022/10/28 06:35:58;;;;;;;21.20;9.10;;;14.50;99.90;;;;;;5021437;28;20045;-64
2022/10/28 06:38:25;;;;;;;17.80;8.48;;;14.50;99.90;;;;;;5025723;28;20083;-63
2022/10/28 06:40:50;;;;;;;18.00;9.70;;;14.50;99.90;;;;;;5026012;28;20485;-63
2022/10/28 06:43:16;;;;;;;20.92;9.18;;;14.50;99.90;;;;;;5028921;28;20040;-64
2022/10/28 06:45:42;;;;;;;22.13;10.00;;;14.60;99.90;;;;;;5025098;28;20033;-64
2022/10/28 06:48:09;;;;;;;19.35;8.80;;;14.60;99.90;;;;;;5026982;28;20037;-64
2022/10/28 06:50:35;;;;;;;17.25;8.65;;;14.60;99.90;;;;;;5023965;28;20045;-64
2022/10/28 06:53:01;;;;;;;14.52;8.38;;;14.70;99.90;;;;;;5025407;28;20048;-64
2022/10/28 06:55:27;;;;;;;16.70;8.75;;;14.60;99.90;;;;;;5022386;28;20067;-63
2022/10/28 06:57:57;;;;;;;17.27;8.43;;;14.70;99.90;;;;;;5020257;28;20127;-63
2022/10/28 07:00:22;;;;;;;20.77;8.65;;;14.70;99.90;;;;;;5025291;28;20049;-63
2022/10/28 07:02:52;;;;;;;17.83;8.35;;;14.60;99.90;;;;;;5018129;28;20034;-63
2022/10/28 07:05:18;;;;;;;17.75;8.55;;;14.70;99.90;;;;;;5026675;28;20283;-63
2022/10/28 07:07:44;;;;;;;15.88;7.90;;;14.70;99.90;;;;;;5026027;28;20461;-63
2022/10/28 07:10:09;;;;;;;20.30;9.68;;;14.70;99.90;;;;;;5019726;28;20041;-63
2022/10/28 07:12:36;;;;;;;17.33;7.75;;;14.80;99.90;;;;;;5027954;28;20392;-63
2022/10/28 07:15:01;;;;;;;17.40;8.90;;;14.80;99.90;;;;;;5027898;28;20033;-63
2022/10/28 07:17:27;;;;;;;16.35;8.18;;;14.80;99.90;;;;;;5027558;28;20045;-63
2022/10/28 07:19:53;;;;;;;21.77;8.20;;;14.80;99.90;;;;;;5020227;28;20037;-63
2022/10/28 07:22:18;;;;;;;20.60;8.10;;;14.90;99.90;;;;;;5017476;28;20042;-64
2022/10/28 07:24:44;;;;;;;21.17;7.97;;;14.90;99.90;;;;;;5022341;28;20064;-63
2022/10/28 07:27:09;;;;;;;19.27;7.78;;;14.90;99.90;;;;;;5025479;28;20041;-64
2022/10/28 07:29:35;;;;;;;18.90;8.18;;;15.00;99.90;;;;;;5022622;28;20611;-64
2022/10/28 07:32:00;;;;;;;18.15;8.50;;;14.90;99.90;;;;;;5023699;28;20033;-64
2022/10/28 07:34:26;;;;;;;18.42;8.25;;;15.00;99.90;;;;;;5010467;28;20046;-64
2022/10/28 07:36:53;;;;;;;20.85;8.75;;;15.00;99.90;;;;;;5015010;28;20121;-64
2022/10/28 07:39:18;;;;;;;19.13;9.02;;;15.10;99.90;;;;;;5019027;28;20045;-63
2022/10/28 07:41:44;;;;;;;17.77;8.30;;;15.10;99.90;;;;;;5021204;28;20118;-64
2022/10/28 07:44:10;;;;;;;18.27;8.32;;;15.10;99.90;;;;;;5021574;28;20129;-64
2022/10/28 07:46:36;;;;;;;18.45;8.32;;;15.20;99.90;;;;;;5015669;28;20026;-64
2022/10/28 07:49:02;;;;;;;20.55;7.93;;;15.20;99.90;;;;;;5015637;28;20038;-64
2022/10/28 07:51:28;;;;;;;18.90;8.20;;;15.30;99.90;;;;;;5019890;28;20033;-64
2022/10/28 07:53:55;;;;;;;18.30;8.35;;;15.30;99.90;;;;;;5019902;28;20091;-64
2022/10/28 07:56:21;;;;;;;16.25;7.90;;;15.30;99.90;;;;;;5022958;28;20404;-64
2022/10/28 07:58:47;;;;;;;16.63;7.50;;;15.40;99.90;;;;;;5024426;28;20042;-64
2022/10/28 08:01:15;;;;;;;18.77;7.70;;;15.40;99.90;;;;;;5018911;28;20037;-64
2022/10/28 08:03:41;;;;;;;14.90;7.47;;;15.40;99.90;;;;;;5010485;28;20042;-64
2022/10/28 08:06:08;;;;;;;16.75;7.45;;;15.50;99.90;;;;;;5022512;28;20095;-64
2022/10/28 08:08:34;;;;;;;15.95;8.18;;;15.50;99.90;;;;;;5023870;28;20084;-63
2022/10/28 08:11:11;;;;;;;17.98;7.75;;;15.50;99.90;;;;;;5023799;28;20488;-63
2022/10/28 08:13:37;;;;;;;15.13;7.40;;;15.60;99.90;;;;;;5019417;28;20038;-63
2022/10/28 08:16:02;;;;;;;19.55;7.82;;;15.60;99.90;;;;;;5020598;28;20120;-63
2022/10/28 08:18:28;;;;;;;18.33;7.50;;;15.60;99.90;;;;;;5026690;28;20045;-63
2022/10/28 08:20:53;;;;;;;17.05;7.30;;;15.70;99.90;;;;;;5023105;28;20033;-63
2022/10/28 08:23:19;;;;;;;16.50;7.35;;;15.70;99.90;;;;;;5028116;28;20483;-63
2022/10/28 08:25:50;;;;;;;16.42;8.00;;;15.70;99.90;;;;;;5019826;28;20042;-63
2022/10/28 08:28:16;;;;;;;15.50;7.63;;;15.80;99.90;;;;;;5028275;28;20416;-63
2022/10/28 08:30:41;;;;;;;16.00;7.55;;;15.80;99.90;;;;;;5032563;28;20108;-63
2022/10/28 08:33:07;;;;;;;18.65;7.43;;;15.80;99.90;;;;;;5030982;28;20040;-63
2022/10/28 08:35:34;;;;;;;21.05;7.88;;;15.90;99.90;;;;;;5028335;28;20037;-63
2022/10/28 08:38:00;;;;;;;18.55;7.72;;;15.90;99.90;;;;;;5028822;28;20437;-63
2022/10/28 08:40:36;;;;;;;20.23;7.38;;;16.00;99.90;;;;;;5028352;28;20472;-63
2022/10/28 08:43:31;;;;;;;11.90;6.68;;;16.10;99.90;;;;;;5027484;28;20041;-63
2022/10/28 08:46:07;;;;;;;13.40;7.25;;;16.10;99.90;;;;;;5027280;28;20049;-63
2022/10/28 08:48:35;;;;;;;16.02;7.05;;;16.20;99.90;;;;;;5025038;28;20033;-63
2022/10/28 08:51:31;;;;;;;13.13;7.13;;;16.30;99.90;;;;;;5026783;28;20052;-63
2022/10/28 08:54:01;;;;;;;18.75;8.02;;;16.40;99.90;;;;;;5014791;28;20140;-63
2022/10/28 08:56:44;;;;;;;16.65;8.02;;;16.50;99.90;;;;;;5022731;28;20080;-63
2022/10/28 08:59:33;;;;;;;17.88;7.13;;;16.60;99.90;;;;;;5017143;28;20046;-63
2022/10/28 09:02:03;;;;;;;17.83;7.30;;;16.70;99.90;;;;;;5019980;28;20081;-63
2022/10/28 09:04:39;;;;;;;21.55;7.60;;;16.70;99.90;;;;;;5018093;28;20032;-63
2022/10/28 09:07:19;;;;;;;19.52;7.38;;;16.70;99.90;;;;;;5031463;28;20484;-63
2022/10/28 09:09:47;;;;;;;17.17;7.80;;;16.80;99.90;;;;;;5018186;28;20099;-63
2022/10/28 09:12:27;;;;;;;24.70;8.30;;;16.80;99.90;;;;;;5030202;28;20045;-63
2022/10/28 09:15:17;;;;;;;15.88;7.28;;;16.90;99.90;;;;;;5028074;28;20048;-63
2022/10/28 09:17:53;;;;;;;19.52;7.40;;;16.90;99.90;;;;;;5018977;28;20046;-63
2022/10/28 09:20:48;;;;;;;13.80;6.95;;;16.90;99.90;;;;;;5026530;28;20037;-63
2022/10/28 09:23:25;;;;;;;17.83;7.88;;;17.00;99.90;;;;;;5026293;28;20048;-63
2022/10/28 09:26:00;;;;;;;21.45;7.70;;;17.00;99.90;;;;;;5020880;28;20041;-63
2022/10/28 09:29:03;;;;;;;14.05;7.30;;;17.00;99.90;;;;;;5020493;28;20045;-63
2022/10/28 09:31:35;;;;;;;15.25;7.53;;;17.00;99.90;;;;;;5016941;28;20107;-63
2022/10/28 09:34:35;;;;;;;19.17;7.22;;;17.10;99.90;;;;;;5025333;28;20496;-63
2022/10/28 09:37:23;;;;;;;15.50;6.95;;;17.10;99.90;;;;;;5024720;28;20399;-63
2022/10/28 09:39:55;;;;;;;15.70;6.75;;;17.10;99.90;;;;;;5019119;28;20072;-63
2022/10/28 09:42:30;;;;;;;14.30;6.80;;;17.10;99.90;;;;;;5020707;28;20099;-63
2022/10/28 09:45:12;;;;;;;15.57;6.38;;;17.10;99.90;;;;;;5016091;28;20045;-63
2022/10/28 09:47:44;;;;;;;17.80;7.20;;;17.20;99.90;;;;;;5020818;28;20070;-63
2022/10/28 09:50:17;;;;;;;15.52;6.68;;;17.20;99.90;;;;;;5031593;28;20045;-63
2022/10/28 09:53:08;;;;;;;21.83;7.20;;;17.20;99.90;;;;;;5021648;28;20057;-63
2022/10/28 09:55:34;;;;;;;16.67;7.07;;;17.30;99.90;;;;;;5031139;28;20095;-63
2022/10/28 09:58:02;;;;;;;25.90;7.47;;;17.30;99.90;;;;;;5024985;28;20033;-63
2022/10/28 10:00:28;;;;;;;22.42;7.15;;;17.30;99.90;;;;;;5030196;28;20096;-62
2022/10/28 10:02:56;;;;;;;14.30;6.45;;;17.30;99.90;;;;;;5023638;28;20451;-62
2022/10/28 10:05:23;;;;;;;18.63;6.22;;;17.30;99.90;;;;;;5026707;28;20381;-62
2022/10/28 10:07:56;;;;;;;16.50;6.57;;;17.40;99.90;;;;;;5020270;28;20104;-63
2022/10/28 10:10:47;;;;;;;20.65;6.57;;;17.50;99.90;;;;;;5025131;28;20041;-62
2022/10/28 10:13:17;;;;;;;15.02;5.93;;;17.50;99.90;;;;;;5026742;28;20067;-62
2022/10/28 10:16:14;;;;;;;19.05;6.68;;;17.60;99.90;;;;;;5028841;28;20084;-62
2022/10/28 10:18:45;;;;;;;15.98;6.93;;;17.70;99.90;;;;;;5043249;28;20037;-62
2022/10/28 10:21:11;;;;;;;17.55;6.97;;;17.70;99.90;;;;;;5020829;28;20480;-61
2022/10/28 10:23:38;;;;;;;20.58;7.03;;;17.80;99.90;;;;;;5024123;28;20197;-62
2022/10/28 10:26:13;;;;;;;13.88;6.38;;;17.90;99.90;;;;;;5024836;28;20041;-61
2022/10/28 10:28:44;;;;;;;17.52;6.95;;;17.90;99.90;;;;;;5020102;28;20045;-61
2022/10/28 10:31:18;;;;;;;19.23;6.77;;;17.90;99.90;;;;;;5024933;28;20140;-62
2022/10/28 10:33:57;;;;;;;17.70;6.03;;;18.00;99.90;;;;;;5022531;28;20555;-62
2022/10/28 10:36:27;;;;;;;19.88;6.78;;;18.00;99.90;;;;;;5016712;28;20512;-61
2022/10/28 10:38:56;;;;;;;19.05;6.63;;;18.10;99.90;;;;;;5016581;28;20489;-62
2022/10/28 10:41:41;;;;;;;18.80;6.55;;;18.00;99.90;;;;;;5015919;28;20056;-61
2022/10/28 10:44:30;;;;;;;16.90;6.53;;;18.10;99.90;;;;;;5024069;28;20514;-62
2022/10/28 10:46:58;;;;;;;14.88;6.10;;;18.10;99.90;;;;;;5020744;28;20453;-62
2022/10/28 10:49:25;;;;;;;18.23;6.78;;;18.10;99.90;;;;;;5022422;28;20165;-66
2022/10/28 10:51:52;;;;;;;16.85;6.35;;;18.10;99.90;;;;;;5025821;28;20120;-62
2022/10/28 10:54:19;;;;;;;18.83;6.13;;;18.20;99.90;;;;;;5023841;28;20030;-62
2022/10/28 10:56:44;;;;;;;18.58;6.60;;;18.20;99.90;;;;;;5016516;28;20463;-64
2022/10/28 10:59:25;;;;;;;19.08;6.03;;;18.30;99.90;;;;;;5021054;28;20289;-64
2022/10/28 11:01:52;;;;;;;14.90;6.22;;;18.40;99.90;;;;;;5026673;28;20041;-62
2022/10/28 11:04:21;;;;;;;18.70;6.82;;;18.50;99.90;;;;;;5026529;28;20037;-62
2022/10/28 11:06:53;;;;;;;17.58;6.13;;;18.60;99.90;;;;;;5019371;28;20120;-62
2022/10/28 11:09:21;;;;;;;15.38;6.38;;;18.80;99.90;;;;;;5017029;28;20037;-65
2022/10/28 11:11:47;;;;;;;13.82;6.20;;;18.90;99.90;;;;;;5023976;28;20516;-62
2022/10/28 11:14:13;;;;;;;18.75;6.32;;;19.00;99.90;;;;;;5020991;28;20068;-65
2022/10/28 11:16:53;;;;;;;16.08;6.20;;;19.10;99.90;;;;;;5025747;28;20040;-61
2022/10/28 11:19:30;;;;;;;20.50;6.50;;;19.20;99.90;;;;;;5018625;28;20323;-63
2022/10/28 11:22:27;;;;;;;14.40;5.88;;;19.20;99.90;;;;;;5022630;28;20037;-63
2022/10/28 11:25:17;;;;;;;16.98;5.80;;;19.30;99.90;;;;;;5027531;28;20123;-61
2022/10/28 11:28:08;;;;;;;16.35;6.18;;;19.30;99.90;;;;;;5019529;28;20046;-61
2022/10/28 11:30:58;;;;;;;17.10;6.15;;;19.30;99.90;;;;;;5015828;28;20046;-65
2022/10/28 11:33:51;;;;;;;14.85;5.78;;;19.30;99.90;;;;;;5028019;28;20045;-62
2022/10/28 11:36:27;;;;;;;18.55;6.32;;;19.40;99.90;;;;;;5021850;28;20377;-63
2022/10/28 11:39:18;;;;;;;21.85;6.07;;;19.40;99.90;;;;;;5026942;28;20065;-63
2022/10/28 11:41:58;;;;;;;17.30;5.95;;;19.50;99.90;;;;;;5022568;28;20069;-63
2022/10/28 11:44:32;;;;;;;15.32;5.60;;;19.50;99.90;;;;;;5027720;28;20049;-63
2022/10/28 11:47:20;;;;;;;13.55;5.93;;;19.60;99.90;;;;;;5019204;28;20047;-63
2022/10/28 11:50:10;;;;;;;19.23;6.70;;;19.60;99.90;;;;;;5035872;28;20575;-63
2022/10/28 11:52:53;;;;;;;16.50;6.22;;;19.60;99.90;;;;;;5025015;28;20046;-63
2022/10/28 11:55:31;;;;;;;14.50;6.40;;;19.60;99.90;;;;;;5018824;28;20060;-64
2022/10/28 11:58:20;;;;;;;13.57;6.15;;;19.60;99.90;;;;;;5030287;28;20103;-64
2022/10/28 12:00:46;;;;;;;20.38;6.90;;;19.60;99.90;;;;;;5028622;28;20065;-63
2022/10/28 12:03:21;;;;;;;15.63;5.97;;;19.60;99.90;;;;;;5026124;28;20041;-64
2022/10/28 12:05:54;;;;;;;16.85;6.28;;;19.60;99.90;;;;;;5020895;28;20060;-64
2022/10/28 12:08:43;;;;;;;19.00;6.43;;;19.60;99.90;;;;;;5025322;28;20049;-64
2022/10/28 12:11:26;;;;;;;15.15;5.85;;;19.60;99.90;;;;;;5030044;28;20503;-64
2022/10/28 12:14:36;;;;;;;18.08;6.90;;;19.60;99.90;;;;;;5032655;28;20049;-64
2022/10/28 12:17:21;;;;;;;12.25;6.53;;;19.60;99.90;;;;;;5021895;28;20050;-63
2022/10/28 12:20:01;;;;;;;16.67;6.47;;;19.70;99.90;;;;;;5026673;28;20042;-64
2022/10/28 12:22:43;;;;;;;17.77;6.13;;;19.70;99.90;;;;;;5031390;28;20048;-64
2022/10/28 12:25:13;;;;;;;;;;;19.70;99.90;;;;;;5016511;28;20041;-64
2022/10/28 12:27:42;;;;;;;15.45;5.93;;;19.70;99.90;;;;;;5024413;28;19924;-64
2022/10/28 12:30:25;;;;;;;20.63;6.65;;;19.70;99.90;;;;;;5021743;28;20034;-63
2022/10/28 12:33:53;;;;;;;15.85;6.47;;;19.70;99.90;;;;;;5024353;28;20048;-64
2022/10/28 12:36:40;;;;;;;16.65;6.22;;;19.80;99.90;;;;;;5010905;28;20061;-64
2022/10/28 12:39:27;;;;;;;17.40;6.97;;;19.80;99.90;;;;;;5024092;28;20108;-64
2022/10/28 12:42:02;;;;;;;18.67;6.63;;;19.80;99.90;;;;;;5021898;28;20053;-64
2022/10/28 12:44:30;;;;;;;15.98;6.28;;;19.80;99.90;;;;;;5031828;28;20033;-64
2022/10/28 12:47:01;;;;;;;17.60;7.15;;;19.80;99.90;;;;;;5031988;28;20053;-64
2022/10/28 12:49:33;;;;;;;20.30;6.65;;;19.80;99.90;;;;;;5030373;28;20056;-63
2022/10/28 12:52:07;;;;;;;17.77;6.43;;;19.80;99.90;;;;;;5022469;28;20045;-64
2022/10/28 12:54:50;;;;;;;16.48;6.38;;;19.80;99.90;;;;;;5018676;28;20052;-63
2022/10/28 12:57:19;;;;;;;18.17;6.82;;;19.80;99.90;;;;;;5026906;28;20045;-64